Shin Chun — VRFD2 — position and weather

sailwx.info

Track history (hours):
 
Tides and Currents Weather Stations Pressure Air Temp Water Temp Dewpoint Dewpoint Depression Visibility Wind Speed Wind Dir Waves Ship Positions

Shin Chun

Last reported at 2015-Jan-31 03:33 UTC. Time now 2015-Jan-31 04:01 UTC.
Position N 26°04' E 119°31'.

Length 152 m; draft 7.2 m.

Type: Cargo ship. MMSI: 477218300.

Date/timePositionNaut miles runAvg speedWind from/ knotsBaromVisibWave heightAir tempDewpointWater temp
2015-Jan-31 03:33N 26°04' E 119°31'10 9.7
2015-Jan-31 02:32N 26°06' E 119°42'1211.8
2015-Jan-31 01:33N 25°58' E 119°52'1613.4
2015-Jan-31 00:22N 25°43' E 119°57'164 9.7
2015-Jan-30 07:28N 22°59' E 119°55'1313.7
2015-Jan-30 06:33N 22°48' E 120°03'1413.7
2015-Jan-30 05:33N 22°37' E 120°10'8 7.6
2015-Jan-30 04:33N 22°34' E 120°18'0 0.3
2015-Jan-30 03:28N 22°35' E 120°18'0 0.0
2015-Jan-30 02:28N 22°35' E 120°18'0 0.0
2015-Jan-30 01:28N 22°35' E 120°18'0 0.0
2015-Jan-30 00:28N 22°35' E 120°18'0 0.0
2015-Jan-29 23:28N 22°35' E 120°18'1 1.4
2015-Jan-29 22:33N 22°36' E 120°17'7 6.6
2015-Jan-29 21:33N 22°38' E 120°11'5 4.2
2015-Jan-29 20:28N 22°41' E 120°07'0 0.2
2015-Jan-29 19:28N 22°41' E 120°06'0 0.3
2015-Jan-29 18:28N 22°41' E 120°06'0 0.3
2015-Jan-29 17:28N 22°41' E 120°06'0 0.3
2015-Jan-29 16:28N 22°41' E 120°06'8 8.9
2015-Jan-29 15:34N 22°45' E 119°58'1312.7
2015-Jan-29 14:33N 22°52' E 119°46'1413.3
2015-Jan-29 13:32N 23°00' E 119°34'8512.2
2015-Jan-29 06:33N 24°02' E 118°29'1312.5
2015-Jan-29 05:33N 24°11' E 118°20'1212.6
2015-Jan-29 04:33N 24°20' E 118°11'1110.7
2015-Jan-29 03:33N 24°28' E 118°03'3 3.0
2015-Jan-29 02:32N 24°31' E 118°05'0 0.0
2015-Jan-29 01:26N 24°31' E 118°05'0 0.0
2015-Jan-29 00:29N 24°31' E 118°05'0 0.0
2015-Jan-28 23:32N 24°31' E 118°05'0 0.0
2015-Jan-28 22:32N 24°31' E 118°05'0 0.0
2015-Jan-28 21:26N 24°31' E 118°05'0 0.0
2015-Jan-28 20:32N 24°31' E 118°05'0 0.0
2015-Jan-28 19:32N 24°31' E 118°05'0 0.0
2015-Jan-28 18:29N 24°31' E 118°05'0 0.0
2015-Jan-28 17:29N 24°31' E 118°05'0 0.0
2015-Jan-28 16:26N 24°31' E 118°05'0 0.0
2015-Jan-28 15:23N 24°31' E 118°05'0 0.0
2015-Jan-28 14:20N 24°31' E 118°05'0 0.0
2015-Jan-28 13:32N 24°31' E 118°05'0 0.0
2015-Jan-28 12:32N 24°31' E 118°05'0 0.0
2015-Jan-28 11:32N 24°31' E 118°05'0 0.0
2015-Jan-28 10:26N 24°31' E 118°05'0 0.0
2015-Jan-28 09:23N 24°31' E 118°05'0 0.0
2015-Jan-28 08:32N 24°31' E 118°05'0 0.0
2015-Jan-28 07:32N 24°31' E 118°05'0 0.0
2015-Jan-28 06:32N 24°31' E 118°05'0 0.1
2015-Jan-28 05:31N 24°31' E 118°05'8 8.1
2015-Jan-28 04:33N 24°23' E 118°07'9 8.8
2015-Jan-28 03:33N 24°19' E 118°16'1010.3
2015-Jan-28 02:33N 24°21' E 118°27'1110.5
2015-Jan-28 01:30N 24°21' E 118°39'2613.1
2015-Jan-27 23:31N 24°29' E 119°06'108 2.8
2015-Jan-26 09:19N 22°53' E 120°01'911.3
2015-Jan-26 08:33N 22°46' E 120°06'1111.3
2015-Jan-26 07:33N 22°37' E 120°15'4 4.1
2015-Jan-26 06:30N 22°35' E 120°18'0 0.0
2015-Jan-26 05:30N 22°35' E 120°18'0 0.0
2015-Jan-26 04:30N 22°35' E 120°18'0 0.0
2015-Jan-26 03:18N 22°35' E 120°18'0 0.0
2015-Jan-26 02:30N 22°35' E 120°18'0 0.0
2015-Jan-26 01:30N 22°35' E 120°18'0 0.1
2015-Jan-26 00:33N 22°35' E 120°18'6 6.0
2015-Jan-25 23:33N 22°37' E 120°12'10 9.5
2015-Jan-25 22:33N 22°45' E 120°06'1312.7
2015-Jan-25 21:32N 22°55' E 119°58'12812.6
2015-Jan-25 11:20N 25°04' E 120°02'4213.2
2015-Jan-25 08:11N 25°45' E 120°02'1514.0
2015-Jan-25 07:08N 25°58' E 119°53'913.9
2015-Jan-25 06:31N 26°05' E 119°48'1211.6
2015-Jan-25 05:31N 26°08' E 119°35'1010.0
2015-Jan-25 04:33N 26°01' E 119°29'0 0.1
2015-Jan-25 03:27N 26°00' E 119°29'0 0.0
2015-Jan-25 02:27N 26°00' E 119°29'0 0.0
2015-Jan-25 01:27N 26°00' E 119°29'0 0.0
2015-Jan-25 00:33N 26°00' E 119°29'0 0.0
2015-Jan-24 23:27N 26°00' E 119°29'0 0.0
2015-Jan-24 22:33N 26°00' E 119°29'0 0.0
2015-Jan-24 21:33N 26°00' E 119°29'0 0.0
2015-Jan-24 20:33N 26°00' E 119°29'0 0.0
2015-Jan-24 19:33N 26°00' E 119°29'0 0.0
2015-Jan-24 18:33N 26°00' E 119°29'0 0.0
2015-Jan-24 17:33N 26°00' E 119°29'0 0.0
2015-Jan-24 16:33N 26°00' E 119°29'0 0.0
2015-Jan-24 15:33N 26°00' E 119°29'0 0.0
2015-Jan-24 14:33N 26°00' E 119°29'0 0.0
2015-Jan-24 13:33N 26°00' E 119°29'0 0.0
2015-Jan-24 12:33N 26°00' E 119°29'0 0.0
2015-Jan-24 11:33N 26°00' E 119°29'0 0.0
2015-Jan-24 10:15N 26°00' E 119°29'0 0.0
2015-Jan-24 09:33N 26°00' E 119°29'0 0.0
2015-Jan-24 08:32N 26°00' E 119°29'0 0.0
2015-Jan-24 07:32N 26°00' E 119°29'0 0.0
2015-Jan-24 06:32N 26°00' E 119°29'0 0.0
2015-Jan-24 05:26N 26°00' E 119°29'0 0.0
2015-Jan-24 04:33N 26°00' E 119°29'12 9.2
2015-Jan-24 03:16N 26°07' E 119°39'1013.7
2015-Jan-24 02:33N 26°04' E 119°50'0 0.1
2015-Jan-23 23:29N 26°04' E 119°50'6 6.2
2015-Jan-23 22:32N 25°59' E 119°53'7411.7
2015-Jan-23 16:14N 24°45' E 120°01'3512.8
2015-Jan-23 13:31N 24°10' E 119°58'1414.1
2015-Jan-23 12:33N 23°57' E 119°57'1413.5
2015-Jan-23 11:33N 23°43' E 119°56'5210.3
2015-Jan-23 06:33N 22°52' E 120°01'10 9.7
2015-Jan-23 05:33N 22°44' E 120°07'1110.6
2015-Jan-23 04:33N 22°37' E 120°16'3 3.0
2015-Jan-23 03:27N 22°35' E 120°18'0 0.0
2015-Jan-23 02:33N 22°35' E 120°18'0 0.0
2015-Jan-23 01:33N 22°35' E 120°18'0 0.0
2015-Jan-23 00:33N 22°35' E 120°18'3 3.4
2015-Jan-22 23:33N 22°37' E 120°16'2 1.8
2015-Jan-22 22:31N 22°36' E 120°14'0 0.1
2015-Jan-22 21:31N 22°36' E 120°14'0 0.0
2015-Jan-22 20:31N 22°36' E 120°14'0 0.1
2015-Jan-22 19:31N 22°36' E 120°14'0 0.0
2015-Jan-22 18:31N 22°36' E 120°14'0 0.0
2015-Jan-22 17:31N 22°36' E 120°14'3 2.6
2015-Jan-22 16:33N 22°38' E 120°12'1312.9
2015-Jan-22 15:33N 22°45' E 120°00'1312.6
2015-Jan-22 14:33N 22°52' E 119°49'1212.1
2015-Jan-22 13:33N 22°58' E 119°38'1211.7
2015-Jan-22 12:33N 23°05' E 119°27'1111.5
2015-Jan-22 11:33N 23°14' E 119°19'1312.6
2015-Jan-22 10:33N 23°24' E 119°10'1313.5
2015-Jan-22 09:33N 23°34' E 119°01'4213.6
2015-Jan-22 06:28N 24°04' E 118°30'1212.9
2015-Jan-22 05:33N 24°11' E 118°19'1212.2
2015-Jan-22 04:33N 24°20' E 118°10'1010.1
2015-Jan-22 03:33N 24°29' E 118°03'3 2.8
2015-Jan-22 02:27N 24°31' E 118°05'0 0.0
2015-Jan-22 01:33N 24°31' E 118°05'0 0.0
2015-Jan-22 00:30N 24°31' E 118°05'0 0.0
2015-Jan-21 23:33N 24°31' E 118°05'0 0.0
2015-Jan-21 22:45N 24°31' E 118°05'0 0.0
2015-Jan-21 22:27N 24°31' E 118°05'0 0.0
2015-Jan-21 21:24N 24°31' E 118°05'0 0.0
2015-Jan-21 20:21N 24°31' E 118°05'0 0.0
2015-Jan-21 19:30N 24°31' E 118°05'0 0.0
2015-Jan-21 18:30N 24°31' E 118°05'0 0.0
2015-Jan-21 17:33N 24°31' E 118°05'0 0.0
2015-Jan-21 16:30N 24°31' E 118°05'0 0.0
2015-Jan-21 15:33N 24°31' E 118°05'0 0.0
2015-Jan-21 14:30N 24°31' E 118°05'0 0.0
2015-Jan-21 13:30N 24°31' E 118°05'0 0.0
2015-Jan-21 12:33N 24°31' E 118°05'0 0.0
2015-Jan-21 11:33N 24°31' E 118°05'0 0.0
2015-Jan-21 10:30N 24°31' E 118°05'0 0.0
2015-Jan-21 09:27N 24°31' E 118°05'0 0.0
2015-Jan-21 08:30N 24°31' E 118°05'0 0.0
2015-Jan-21 07:30N 24°31' E 118°05'4 4.1
2015-Jan-21 06:34N 24°28' E 118°03'1010.0
2015-Jan-21 05:32N 24°20' E 118°11'3 2.5
2015-Jan-21 04:21N 24°18' E 118°13'  
Track history (hours):
 
Tides and Currents Weather Stations Pressure Air Temp Water Temp Dewpoint Dewpoint Depression Visibility Wind Speed Wind Dir Waves Ship Positions

Shin Chun

Last reported at 2015-Jan-31 03:33 UTC. Time now 2015-Jan-31 04:01 UTC.
Position N 26°04' E 119°31'.

Length 152 m; draft 7.2 m.

Type: Cargo ship. MMSI: 477218300.

Date/timePositionNaut miles runAvg speedWind from/ knotsBaromVisibWave heightAir tempDewpointWater temp
2015-Jan-31 03:33N 26°04' E 119°31'10 9.7
2015-Jan-31 02:32N 26°06' E 119°42'1211.8
2015-Jan-31 01:33N 25°58' E 119°52'1613.4
2015-Jan-31 00:22N 25°43' E 119°57'164 9.7
2015-Jan-30 07:28N 22°59' E 119°55'1313.7
2015-Jan-30 06:33N 22°48' E 120°03'1413.7
2015-Jan-30 05:33N 22°37' E 120°10'8 7.6
2015-Jan-30 04:33N 22°34' E 120°18'0 0.3
2015-Jan-30 03:28N 22°35' E 120°18'0 0.0
2015-Jan-30 02:28N 22°35' E 120°18'0 0.0
2015-Jan-30 01:28N 22°35' E 120°18'0 0.0
2015-Jan-30 00:28N 22°35' E 120°18'0 0.0
2015-Jan-29 23:28N 22°35' E 120°18'1 1.4
2015-Jan-29 22:33N 22°36' E 120°17'7 6.6
2015-Jan-29 21:33N 22°38' E 120°11'5 4.2
2015-Jan-29 20:28N 22°41' E 120°07'0 0.2
2015-Jan-29 19:28N 22°41' E 120°06'0 0.3
2015-Jan-29 18:28N 22°41' E 120°06'0 0.3
2015-Jan-29 17:28N 22°41' E 120°06'0 0.3
2015-Jan-29 16:28N 22°41' E 120°06'8 8.9
2015-Jan-29 15:34N 22°45' E 119°58'1312.7
2015-Jan-29 14:33N 22°52' E 119°46'1413.3
2015-Jan-29 13:32N 23°00' E 119°34'8512.2
2015-Jan-29 06:33N 24°02' E 118°29'1312.5
2015-Jan-29 05:33N 24°11' E 118°20'1212.6
2015-Jan-29 04:33N 24°20' E 118°11'1110.7
2015-Jan-29 03:33N 24°28' E 118°03'3 3.0
2015-Jan-29 02:32N 24°31' E 118°05'0 0.0
2015-Jan-29 01:26N 24°31' E 118°05'0 0.0
2015-Jan-29 00:29N 24°31' E 118°05'0 0.0
2015-Jan-28 23:32N 24°31' E 118°05'0 0.0
2015-Jan-28 22:32N 24°31' E 118°05'0 0.0
2015-Jan-28 21:26N 24°31' E 118°05'0 0.0
2015-Jan-28 20:32N 24°31' E 118°05'0 0.0
2015-Jan-28 19:32N 24°31' E 118°05'0 0.0
2015-Jan-28 18:29N 24°31' E 118°05'0 0.0
2015-Jan-28 17:29N 24°31' E 118°05'0 0.0
2015-Jan-28 16:26N 24°31' E 118°05'0 0.0
2015-Jan-28 15:23N 24°31' E 118°05'0 0.0
2015-Jan-28 14:20N 24°31' E 118°05'0 0.0
2015-Jan-28 13:32N 24°31' E 118°05'0 0.0
2015-Jan-28 12:32N 24°31' E 118°05'0 0.0
2015-Jan-28 11:32N 24°31' E 118°05'0 0.0
2015-Jan-28 10:26N 24°31' E 118°05'0 0.0
2015-Jan-28 09:23N 24°31' E 118°05'0 0.0
2015-Jan-28 08:32N 24°31' E 118°05'0 0.0
2015-Jan-28 07:32N 24°31' E 118°05'0 0.0
2015-Jan-28 06:32N 24°31' E 118°05'0 0.1
2015-Jan-28 05:31N 24°31' E 118°05'8 8.1
2015-Jan-28 04:33N 24°23' E 118°07'9 8.8
2015-Jan-28 03:33N 24°19' E 118°16'1010.3
2015-Jan-28 02:33N 24°21' E 118°27'1110.5
2015-Jan-28 01:30N 24°21' E 118°39'2613.1
2015-Jan-27 23:31N 24°29' E 119°06'108 2.8
2015-Jan-26 09:19N 22°53' E 120°01'911.3
2015-Jan-26 08:33N 22°46' E 120°06'1111.3
2015-Jan-26 07:33N 22°37' E 120°15'4 4.1
2015-Jan-26 06:30N 22°35' E 120°18'0 0.0
2015-Jan-26 05:30N 22°35' E 120°18'0 0.0
2015-Jan-26 04:30N 22°35' E 120°18'0 0.0
2015-Jan-26 03:18N 22°35' E 120°18'0 0.0
2015-Jan-26 02:30N 22°35' E 120°18'0 0.0
2015-Jan-26 01:30N 22°35' E 120°18'0 0.1
2015-Jan-26 00:33N 22°35' E 120°18'6 6.0
2015-Jan-25 23:33N 22°37' E 120°12'10 9.5
2015-Jan-25 22:33N 22°45' E 120°06'1312.7
2015-Jan-25 21:32N 22°55' E 119°58'12812.6
2015-Jan-25 11:20N 25°04' E 120°02'4213.2
2015-Jan-25 08:11N 25°45' E 120°02'1514.0
2015-Jan-25 07:08N 25°58' E 119°53'913.9
2015-Jan-25 06:31N 26°05' E 119°48'1211.6
2015-Jan-25 05:31N 26°08' E 119°35'1010.0
2015-Jan-25 04:33N 26°01' E 119°29'0 0.1
2015-Jan-25 03:27N 26°00' E 119°29'0 0.0
2015-Jan-25 02:27N 26°00' E 119°29'0 0.0
2015-Jan-25 01:27N 26°00' E 119°29'0 0.0
2015-Jan-25 00:33N 26°00' E 119°29'0 0.0
2015-Jan-24 23:27N 26°00' E 119°29'0 0.0
2015-Jan-24 22:33N 26°00' E 119°29'0 0.0
2015-Jan-24 21:33N 26°00' E 119°29'0 0.0
2015-Jan-24 20:33N 26°00' E 119°29'0 0.0
2015-Jan-24 19:33N 26°00' E 119°29'0 0.0
2015-Jan-24 18:33N 26°00' E 119°29'0 0.0
2015-Jan-24 17:33N 26°00' E 119°29'0 0.0
2015-Jan-24 16:33N 26°00' E 119°29'0 0.0
2015-Jan-24 15:33N 26°00' E 119°29'0 0.0
2015-Jan-24 14:33N 26°00' E 119°29'0 0.0
2015-Jan-24 13:33N 26°00' E 119°29'0 0.0
2015-Jan-24 12:33N 26°00' E 119°29'0 0.0
2015-Jan-24 11:33N 26°00' E 119°29'0 0.0
2015-Jan-24 10:15N 26°00' E 119°29'0 0.0
2015-Jan-24 09:33N 26°00' E 119°29'0 0.0
2015-Jan-24 08:32N 26°00' E 119°29'0 0.0
2015-Jan-24 07:32N 26°00' E 119°29'0 0.0
2015-Jan-24 06:32N 26°00' E 119°29'0 0.0
2015-Jan-24 05:26N 26°00' E 119°29'0 0.0
2015-Jan-24 04:33N 26°00' E 119°29'12 9.2
2015-Jan-24 03:16N 26°07' E 119°39'1013.7
2015-Jan-24 02:33N 26°04' E 119°50'0 0.1
2015-Jan-23 23:29N 26°04' E 119°50'6 6.2
2015-Jan-23 22:32N 25°59' E 119°53'7411.7
2015-Jan-23 16:14N 24°45' E 120°01'3512.8
2015-Jan-23 13:31N 24°10' E 119°58'1414.1
2015-Jan-23 12:33N 23°57' E 119°57'1413.5
2015-Jan-23 11:33N 23°43' E 119°56'5210.3
2015-Jan-23 06:33N 22°52' E 120°01'10 9.7
2015-Jan-23 05:33N 22°44' E 120°07'1110.6
2015-Jan-23 04:33N 22°37' E 120°16'3 3.0
2015-Jan-23 03:27N 22°35' E 120°18'0 0.0
2015-Jan-23 02:33N 22°35' E 120°18'0 0.0
2015-Jan-23 01:33N 22°35' E 120°18'0 0.0
2015-Jan-23 00:33N 22°35' E 120°18'3 3.4
2015-Jan-22 23:33N 22°37' E 120°16'2 1.8
2015-Jan-22 22:31N 22°36' E 120°14'0 0.1
2015-Jan-22 21:31N 22°36' E 120°14'0 0.0
2015-Jan-22 20:31N 22°36' E 120°14'0 0.1
2015-Jan-22 19:31N 22°36' E 120°14'0 0.0
2015-Jan-22 18:31N 22°36' E 120°14'0 0.0
2015-Jan-22 17:31N 22°36' E 120°14'3 2.6
2015-Jan-22 16:33N 22°38' E 120°12'1312.9
2015-Jan-22 15:33N 22°45' E 120°00'1312.6
2015-Jan-22 14:33N 22°52' E 119°49'1212.1
2015-Jan-22 13:33N 22°58' E 119°38'1211.7
2015-Jan-22 12:33N 23°05' E 119°27'1111.5
2015-Jan-22 11:33N 23°14' E 119°19'1312.6
2015-Jan-22 10:33N 23°24' E 119°10'1313.5
2015-Jan-22 09:33N 23°34' E 119°01'4213.6
2015-Jan-22 06:28N 24°04' E 118°30'1212.9
2015-Jan-22 05:33N 24°11' E 118°19'1212.2
2015-Jan-22 04:33N 24°20' E 118°10'1010.1
2015-Jan-22 03:33N 24°29' E 118°03'3 2.8
2015-Jan-22 02:27N 24°31' E 118°05'0 0.0
2015-Jan-22 01:33N 24°31' E 118°05'0 0.0
2015-Jan-22 00:30N 24°31' E 118°05'0 0.0
2015-Jan-21 23:33N 24°31' E 118°05'0 0.0
2015-Jan-21 22:45N 24°31' E 118°05'0 0.0
2015-Jan-21 22:27N 24°31' E 118°05'0 0.0
2015-Jan-21 21:24N 24°31' E 118°05'0 0.0
2015-Jan-21 20:21N 24°31' E 118°05'0 0.0
2015-Jan-21 19:30N 24°31' E 118°05'0 0.0
2015-Jan-21 18:30N 24°31' E 118°05'0 0.0
2015-Jan-21 17:33N 24°31' E 118°05'0 0.0
2015-Jan-21 16:30N 24°31' E 118°05'0 0.0
2015-Jan-21 15:33N 24°31' E 118°05'0 0.0
2015-Jan-21 14:30N 24°31' E 118°05'0 0.0
2015-Jan-21 13:30N 24°31' E 118°05'0 0.0
2015-Jan-21 12:33N 24°31' E 118°05'0 0.0
2015-Jan-21 11:33N 24°31' E 118°05'0 0.0
2015-Jan-21 10:30N 24°31' E 118°05'0 0.0
2015-Jan-21 09:27N 24°31' E 118°05'0 0.0
2015-Jan-21 08:30N 24°31' E 118°05'0 0.0
2015-Jan-21 07:30N 24°31' E 118°05'4 4.1
2015-Jan-21 06:34N 24°28' E 118°03'1010.0
2015-Jan-21 05:32N 24°20' E 118°11'3 2.5
2015-Jan-21 04:21N 24°18' E 118°13'  

Dump ship's entire track history